Time;durP1;ratioP1;P1;durP2;ratioP2;P2;SDS_P1;SDS_P2;PMS_P1;PMS_P2;Temp;Humidity;BMP_temperature;BMP_pressure;BME280_temperature;BME280_humidity;BME280_pressure;Samples;Min_cycle;Max_cycle;Signal;HPM_P1;HPM_P2
2024/04/06 00:00:14;;;;;;;7.28;3.15;;;;;;;11.24;100.00;99465.69;5076766;28;20044;-94
2024/04/06 00:02:40;;;;;;;6.70;2.85;;;;;;;11.85;100.00;99574.63;5076804;28;20047;-94
2024/04/06 00:05:09;;;;;;;6.18;2.47;;;;;;;11.77;100.00;99571.22;5076696;28;20058;-93
2024/04/06 00:07:35;;;;;;;6.63;2.63;;;;;;;11.78;100.00;99559.69;5076745;28;20043;-95
2024/04/06 00:10:02;;;;;;;4.45;2.70;;;;;;;11.79;100.00;99569.41;5076586;28;20040;-91
2024/04/06 00:12:28;;;;;;;8.93;3.40;;;;;;;11.63;100.00;99542.19;5076576;28;20067;-93
2024/04/06 00:14:55;;;;;;;6.22;3.22;;;;;;;11.47;100.00;99560.22;5076701;28;20040;-94
2024/04/06 00:17:21;;;;;;;5.28;3.05;;;;;;;11.04;100.00;99521.06;5076488;28;20067;-94
2024/04/06 00:19:48;;;;;;;5.00;2.95;;;;;;;11.31;100.00;99557.84;5076618;28;20032;-94
2024/04/06 00:22:13;;;;;;;6.63;3.80;;;;;;;11.41;100.00;99557.72;5076686;28;20044;-93
2024/04/06 00:24:39;;;;;;;6.80;3.10;;;;;;;10.79;100.00;99496.63;5076473;28;20043;-94
2024/04/06 00:27:05;;;;;;;7.10;3.25;;;;;;;11.09;100.00;99536.03;5076331;28;20051;-95
2024/04/06 00:29:31;;;;;;;5.63;2.95;;;;;;;11.17;100.00;99564.31;5077011;28;20048;-94
2024/04/06 00:31:59;;;;;;;5.68;3.63;;;;;;;11.17;100.00;99556.31;5075900;28;20036;-95
2024/04/06 00:34:25;;;;;;;5.18;2.92;;;;;;;10.95;100.00;99535.41;5066717;28;20044;-93
2024/04/06 00:36:54;;;;;;;8.90;3.72;;;;;;;11.21;100.00;99550.94;5054987;28;20041;-94
2024/04/06 00:39:20;;;;;;;8.38;3.15;;;;;;;11.27;100.00;99548.16;5043162;28;20059;-93
2024/04/06 00:41:47;;;;;;;7.63;3.08;;;;;;;11.39;100.00;99551.53;5056329;28;20041;-94
2024/04/06 00:44:14;;;;;;;6.38;2.70;;;;;;;10.89;100.00;99477.84;5056475;28;20041;-94
2024/04/06 00:46:40;;;;;;;4.70;3.45;;;;;;;11.41;100.00;99555.03;5056680;28;20095;-94
2024/04/06 00:49:08;;;;;;;9.73;3.03;;;;;;;11.13;100.00;99515.59;5056853;28;20076;-94
2024/04/06 00:51:34;;;;;;;5.82;3.05;;;;;;;10.61;100.00;99410.91;5056202;28;20051;-93
2024/04/06 00:54:01;;;;;;;4.90;2.97;;;;;;;11.31;100.00;99568.50;5056549;28;20151;-96
2024/04/06 00:56:27;;;;;;;7.90;3.05;;;;;;;11.21;100.00;99555.38;5056485;28;20037;-94
2024/04/06 00:58:53;;;;;;;6.72;3.40;;;;;;;11.32;100.00;99558.75;5056664;28;20047;-95
2024/04/06 01:01:19;;;;;;;6.38;3.33;;;;;;;11.24;100.00;99556.19;5055805;28;20127;-94
2024/04/06 01:03:45;;;;;;;4.88;3.15;;;;;;;10.28;100.00;99414.97;5056832;28;20044;-93
2024/04/06 01:06:13;;;;;;;9.23;3.53;;;;;;;10.59;100.00;99460.59;5054672;28;20037;-95
2024/04/06 01:08:40;;;;;;;5.43;3.38;;;;;;;11.07;100.00;99544.97;5038614;28;20152;-94
2024/04/06 01:11:06;;;;;;;4.55;3.22;;;;;;;11.03;100.00;99545.91;5055945;28;20059;-94
2024/04/06 01:13:32;;;;;;;6.55;3.28;;;;;;;10.62;100.00;99521.72;5049991;28;20044;-93
2024/04/06 01:15:58;;;;;;;5.40;3.30;;;;;;;10.79;100.00;99560.50;5035807;28;20500;-93
2024/04/06 01:18:24;;;;;;;3.60;2.75;;;;;;;10.30;100.00;99442.44;5053732;28;20040;-93
2024/04/06 01:20:51;;;;;;;6.45;3.17;;;;;;;10.61;100.00;99509.31;5067147;28;20047;-94
2024/04/06 01:23:19;;;;;;;9.80;3.55;;;;;;;10.65;100.00;99507.50;5075163;28;20044;-94
2024/04/06 01:25:46;;;;;;;6.40;4.05;;;;;;;11.01;100.00;99551.25;5066389;28;20135;-93
2024/04/06 01:28:12;;;;;;;9.70;3.55;;;;;;;10.78;100.00;99503.75;5059542;28;20044;-93
2024/04/06 01:30:38;;;;;;;3.88;2.70;;;;;;;10.61;100.00;99463.25;5059567;28;20051;-94
2024/04/06 01:33:04;;;;;;;6.97;2.63;;;;;;;10.59;100.00;99459.72;5071166;28;20048;-95
2024/04/06 01:35:30;;;;;;;4.30;2.70;;;;;;;10.12;100.00;99408.13;5079520;28;20040;-94
2024/04/06 01:37:56;;;;;;;6.18;3.17;;;;;;;11.00;100.00;99545.97;5079583;28;20044;-94
2024/04/06 01:40:22;;;;;;;4.75;3.47;;;;;;;10.27;100.00;99422.06;5079599;28;20040;-95
2024/04/06 01:42:50;;;;;;;5.95;3.08;;;;;;;10.85;100.00;99525.81;5079151;28;20048;-94
2024/04/06 01:45:16;;;;;;;7.60;3.20;;;;;;;10.98;100.00;99563.75;5079836;28;20117;-93
2024/04/06 01:47:42;;;;;;;4.25;3.03;;;;;;;10.97;100.00;99560.19;5079843;28;20076;-95
2024/04/06 01:50:09;;;;;;;5.38;2.67;;;;;;;10.99;100.00;99565.50;5079127;28;20052;-95
2024/04/06 01:52:35;;;;;;;7.68;3.22;;;;;;;10.95;100.00;99558.47;5097221;28;20050;-94
2024/04/06 01:55:02;;;;;;;9.48;3.17;;;;;;;10.62;100.00;99513.72;5099510;28;20146;-93
2024/04/06 01:57:28;;;;;;;3.88;2.50;;;;;;;10.33;100.00;99490.25;5099319;28;20043;-95
2024/04/06 01:59:56;;;;;;;5.28;2.65;;;;;;;9.95;100.00;99434.94;5083524;28;20040;-93
2024/04/06 02:02:22;;;;;;;4.40;2.63;;;;;;;10.23;100.00;99531.09;5079094;28;20047;-95
2024/04/06 02:04:48;;;;;;;4.80;3.00;;;;;;;9.61;100.00;99432.75;5083661;28;20051;-95
2024/04/06 02:07:14;;;;;;;4.78;3.40;;;;;;;10.53;100.00;99572.38;5087957;28;20055;-93
2024/04/06 02:09:40;;;;;;;8.27;2.72;;;;;;;10.56;100.00;99566.13;5079755;28;20040;-95
2024/04/06 02:12:07;;;;;;;4.60;2.78;;;;;;;10.59;100.00;99572.31;5079119;28;20044;-93
2024/04/06 02:14:33;;;;;;;4.88;2.53;;;;;;;10.59;100.00;99569.63;5079426;28;20403;-93
2024/04/06 02:17:03;;;;;;;4.85;3.40;;;;;;;10.60;100.00;99562.53;5079755;28;20074;-94
2024/04/06 02:19:29;;;;;;;6.22;3.55;;;;;;;10.59;100.00;99561.66;5079369;28;20044;-95
2024/04/06 02:21:55;;;;;;;6.63;2.85;;;;;;;10.32;100.00;99525.69;5078903;28;20126;-95
2024/04/06 02:24:21;;;;;;;3.55;2.05;;;;;;;10.57;100.00;99567.91;5079107;28;20047;-94
2024/04/06 02:26:47;;;;;;;3.78;2.90;;;;;;;10.55;100.00;99569.72;5078834;28;20040;-94
2024/04/06 02:29:13;;;;;;;5.55;3.60;;;;;;;10.57;100.00;99567.91;5078517;28;20044;-94
2024/04/06 02:31:39;;;;;;;6.28;2.85;;;;;;;10.06;100.00;99481.75;5078239;28;20487;-95
2024/04/06 02:34:06;;;;;;;4.95;2.42;;;;;;;10.05;100.00;99495.91;5078238;28;20032;-94
2024/04/06 02:36:35;;;;;;;3.83;2.67;;;;;;;10.48;100.00;99584.88;5082814;28;20050;-93
2024/04/06 02:39:01;;;;;;;4.15;3.03;;;;;;;10.65;100.00;99582.00;5066781;28;20036;-94
2024/04/06 02:41:27;;;;;;;7.47;2.97;;;;;;;9.95;100.00;99466.81;5068842;28;20492;-93
2024/04/06 02:43:53;;;;;;;5.18;3.05;;;;;;;10.61;100.00;99586.47;5093423;28;20034;-94
2024/04/06 02:46:19;;;;;;;4.63;3.15;;;;;;;10.51;100.00;99571.53;5102368;28;20028;-95
2024/04/06 02:48:45;;;;;;;6.03;3.33;;;;;;;10.26;100.00;99525.78;5102120;28;20039;-94
2024/04/06 02:51:13;;;;;;;5.03;2.50;;;;;;;10.62;100.00;99582.88;5095535;28;20130;-93
2024/04/06 02:53:39;;;;;;;6.70;3.20;;;;;;;10.53;100.00;99567.06;5095831;28;20055;-93
2024/04/06 02:56:05;;;;;;;4.97;2.58;;;;;;;10.39;100.00;99542.47;5094940;28;20036;-95
2024/04/06 02:58:31;;;;;;;4.18;2.20;;;;;;;10.36;100.00;99539.84;5083743;28;20082;-92
2024/04/06 03:00:57;;;;;;;6.20;2.97;;;;;;;10.59;100.00;99576.75;5077761;28;20070;-92
2024/04/06 03:03:23;;;;;;;4.78;2.78;;;;;;;10.65;100.00;99580.19;5077871;28;20063;-95
2024/04/06 03:05:50;;;;;;;8.40;2.35;;;;;;;10.62;100.00;99595.31;5077602;28;20139;-92
2024/04/06 03:08:17;;;;;;;6.15;2.90;;;;;;;9.82;100.00;99452.81;5077665;28;20040;-93
2024/04/06 03:10:43;;;;;;;3.20;2.72;;;;;;;10.35;100.00;99554.91;5077762;28;20044;-96
2024/04/06 03:13:09;;;;;;;4.25;2.97;;;;;;;10.51;100.00;99590.13;5077949;28;20044;-93
2024/04/06 03:15:35;;;;;;;5.22;2.90;;;;;;;10.47;100.00;99591.06;5077330;28;20039;-94
2024/04/06 03:18:01;;;;;;;5.15;2.70;;;;;;;9.78;100.00;99475.91;5077361;28;20047;-92
2024/04/06 03:20:27;;;;;;;5.22;2.63;;;;;;;10.48;100.00;99596.38;5077527;28;20074;-94
2024/04/06 03:23:00;;;;;;;6.32;3.20;;;;;;;10.44;100.00;99589.34;5077570;28;20040;-93
2024/04/06 03:25:29;;;;;;;4.78;3.28;;;;;;;10.38;100.00;99589.41;5077765;28;20044;-94
2024/04/06 03:27:55;;;;;;;5.78;2.53;;;;;;;10.26;100.00;99570.97;5077431;28;20055;-95
2024/04/06 03:30:21;;;;;;;5.57;2.88;;;;;;;10.35;100.00;99592.13;5077095;28;20044;-94
2024/04/06 03:32:48;;;;;;;7.00;2.80;;;;;;;10.22;100.00;99561.25;5077028;28;20060;-94
2024/04/06 03:35:14;;;;;;;3.40;2.13;;;;;;;9.53;100.00;99447.88;5077513;28;20041;-95
2024/04/06 03:37:40;;;;;;;5.95;2.33;;;;;;;10.08;100.00;99554.34;5077249;28;20044;-94
2024/04/06 03:40:09;;;;;;;4.45;2.70;;;;;;;10.30;100.00;99587.75;5076707;28;20055;-94
2024/04/06 03:42:37;;;;;;;4.10;2.28;;;;;;;10.34;100.00;99595.69;5076678;28;20063;-94
2024/04/06 03:45:03;;;;;;;4.43;2.65;;;;;;;9.60;100.00;99474.31;5077230;28;20143;-95
2024/04/06 03:47:29;;;;;;;4.72;2.70;;;;;;;10.05;100.00;99538.41;5077209;28;20098;-95
2024/04/06 03:49:55;;;;;;;3.60;2.70;;;;;;;9.43;100.00;99439.13;5077038;28;20044;-92
2024/04/06 03:52:21;;;;;;;3.75;2.67;;;;;;;10.20;100.00;99594.94;5076771;28;20518;-93
2024/04/06 03:54:47;;;;;;;3.75;2.80;;;;;;;10.18;100.00;99592.31;5076933;28;20050;-92
2024/04/06 03:57:14;;;;;;;6.25;2.30;;;;;;;10.09;100.00;99597.75;5076860;28;20089;-93
2024/04/06 03:59:41;;;;;;;5.60;2.55;;;;;;;9.21;100.00;99452.63;5076571;28;20127;-93
2024/04/06 04:02:07;;;;;;;4.60;2.80;;;;;;;9.98;100.00;99597.88;5076871;28;20051;-95
2024/04/06 04:04:34;;;;;;;3.50;2.30;;;;;;;9.90;100.00;99590.88;5076846;28;20143;-93
2024/04/06 04:07:00;;;;;;;4.13;2.47;;;;;;;9.41;100.00;99512.59;5076902;28;20036;-94
2024/04/06 04:09:26;;;;;;;5.47;2.90;;;;;;;9.97;100.00;99597.88;5077919;28;20051;-94
2024/04/06 04:11:54;;;;;;;4.30;2.22;;;;;;;9.77;100.00;99564.44;5077093;28;20040;-93
2024/04/06 04:14:20;;;;;;;3.10;2.47;;;;;;;9.70;100.00;99545.94;5076878;28;20040;-93
2024/04/06 04:16:48;;;;;;;4.32;2.55;;;;;;;10.04;100.00;99594.22;5076996;28;20043;-93
2024/04/06 04:19:14;;;;;;;8.05;2.40;;;;;;;9.77;100.00;99544.97;5076760;28;20130;-92
2024/04/06 04:21:40;;;;;;;4.25;2.10;;;;;;;10.00;100.00;99604.03;5076569;28;20067;-94
2024/04/06 04:24:06;;;;;;;4.20;2.65;;;;;;;10.01;100.00;99596.94;5076576;28;20044;-93
2024/04/06 04:26:32;;;;;;;3.95;2.45;;;;;;;9.96;100.00;99599.66;5076655;28;20036;-94
2024/04/06 04:28:58;;;;;;;7.40;3.67;;;;;;;9.97;100.00;99597.88;5076763;28;20036;-93
2024/04/06 04:31:24;;;;;;;5.55;2.50;;;;;;;9.92;100.00;99597.94;5076843;28;20067;-94
2024/04/06 04:33:52;;;;;;;3.65;2.50;;;;;;;9.64;100.00;99549.53;5076237;28;20048;-95
2024/04/06 04:36:18;;;;;;;4.07;3.30;;;;;;;9.87;100.00;99591.78;5076663;28;20070;-94
2024/04/06 04:38:44;;;;;;;4.22;2.50;;;;;;;9.90;100.00;99602.38;5076508;28;20048;-94
2024/04/06 04:41:10;;;;;;;11.13;3.45;;;;;;;9.31;100.00;99500.34;5077677;28;20043;-94
2024/04/06 04:43:36;;;;;;;5.60;2.60;;;;;;;9.94;100.00;99597.91;5076812;28;20376;-93
2024/04/06 04:46:02;;;;;;;4.30;2.63;;;;;;;9.62;100.00;99562.81;5076211;28;20139;-93
2024/04/06 04:48:56;;;;;;;4.47;3.00;;;;;;;9.00;100.00;99469.69;5077029;28;20091;-92
2024/04/06 04:51:22;;;;;;;3.88;2.22;;;;;;;9.80;100.00;99608.69;5076687;28;20036;-94
2024/04/06 04:53:49;;;;;;;4.10;2.47;;;;;;;9.47;100.00;99555.00;5078371;28;20106;-94
2024/04/06 04:56:15;;;;;;;4.30;2.65;;;;;;;9.86;100.00;99608.63;5081298;28;20051;-93
2024/04/06 04:58:41;;;;;;;3.70;2.53;;;;;;;9.27;100.00;99533.13;5081704;28;20048;-93
2024/04/06 05:01:07;;;;;;;6.28;3.95;;;;;;;9.84;100.00;99618.38;5080390;28;20091;-95
2024/04/06 05:03:33;;;;;;;6.20;2.70;;;;;;;9.04;100.00;99475.81;5080805;28;20043;-94
2024/04/06 05:06:01;;;;;;;4.63;2.95;;;;;;;9.76;100.00;99604.28;5080154;28;20040;-91
2024/04/06 05:08:27;;;;;;;8.60;2.92;;;;;;;9.72;100.00;99619.41;5080358;28;20036;-92
2024/04/06 05:10:53;;;;;;;3.22;2.60;;;;;;;9.47;100.00;99570.94;5080340;28;20082;-91
2024/04/06 05:13:19;;;;;;;5.05;2.42;;;;;;;9.86;100.00;99620.13;5080217;28;20040;-94
2024/04/06 05:15:48;;;;;;;4.53;2.65;;;;;;;10.02;100.00;99623.50;5079985;28;20048;-92
2024/04/06 05:18:14;;;;;;;4.43;2.95;;;;;;;9.75;100.00;99575.97;5072810;28;20491;-94
2024/04/06 05:20:47;;;;;;;5.22;3.08;;;;;;;10.16;100.00;99630.44;5069464;28;20044;-94
2024/04/06 05:23:15;;;;;;;5.32;2.30;;;;;;;9.63;100.00;99527.41;5079507;28;20047;-93
2024/04/06 05:25:41;;;;;;;3.13;2.28;;;;;;;10.35;100.00;99637.31;5089484;28;20038;-93
2024/04/06 05:28:07;;;;;;;4.10;2.85;;;;;;;10.35;100.00;99642.66;5078952;28;20044;-93
2024/04/06 05:30:33;;;;;;;4.82;3.05;;;;;;;10.39;100.00;99649.69;5079628;28;20136;-94
2024/04/06 05:32:59;;;;;;;5.50;2.97;;;;;;;10.45;100.00;99652.28;5079414;28;20075;-94
2024/04/06 05:35:25;;;;;;;12.95;3.35;;;;;;;10.43;100.00;99653.16;5079322;28;20040;-95
2024/04/06 05:37:51;;;;;;;5.25;2.20;;;;;;;10.46;100.00;99658.47;5079883;28;20376;-95
2024/04/06 05:40:18;;;;;;;9.13;3.90;;;;;;;10.50;100.00;99660.19;5079972;28;20044;-95
2024/04/06 05:42:45;;;;;;;6.85;3.05;;;;;;;10.52;100.00;99661.06;5079405;28;20044;-95
2024/04/06 05:45:11;;;;;;;5.03;3.08;;;;;;;10.58;100.00;99660.09;5079046;28;20487;-94
2024/04/06 05:47:37;;;;;;;4.10;2.58;;;;;;;10.41;100.00;99618.66;5079567;28;20036;-95
2024/04/06 05:50:05;;;;;;;5.47;2.85;;;;;;;10.76;100.00;99654.53;5079373;28;20040;-96
2024/04/06 05:52:31;;;;;;;4.78;3.05;;;;;;;10.53;100.00;99617.59;5078258;28;20043;-94
2024/04/06 05:54:59;;;;;;;8.68;2.30;;;;;;;10.85;100.00;99659.72;5080206;28;20375;-94
2024/04/06 05:57:26;;;;;;;5.43;3.30;;;;;;;10.95;100.00;99664.91;5079800;28;20063;-94
2024/04/06 05:59:52;;;;;;;4.82;2.90;;;;;;;11.05;100.00;99666.53;5073693;28;20143;-94
2024/04/06 06:02:18;;;;;;;4.35;2.90;;;;;;;10.74;100.00;99587.16;5063877;28;20135;-94
2024/04/06 06:04:44;;;;;;;6.60;3.55;;;;;;;11.22;100.00;99664.50;5059806;28;20099;-95
2024/04/06 06:07:10;;;;;;;4.45;2.92;;;;;;;10.95;100.00;99614.34;5069662;28;20044;-95
2024/04/06 06:09:36;;;;;;;5.90;2.33;;;;;;;11.25;100.00;99667.09;5082554;28;20561;-92
2024/04/06 06:12:02;;;;;;;3.53;2.80;;;;;;;11.03;100.00;99631.06;5093314;28;20048;-93
2024/04/06 06:14:32;;;;;;;5.13;3.20;;;;;;;11.28;100.00;99675.06;5095472;28;20107;-91
2024/04/06 06:16:58;;;;;;;;;;;;;;;11.42;100.00;99677.50;5086614;28;20046;-96
2024/04/06 06:19:24;;;;;;;3.88;2.40;;;;;;;11.58;100.00;99672.81;5085040;28;20450;-95
2024/04/06 06:21:50;;;;;;;6.63;2.85;;;;;;;11.63;100.00;99678.06;5083817;28;20043;-95
2024/04/06 06:24:16;;;;;;;7.93;2.42;;;;;;;11.77;100.00;99664.50;5079144;28;20127;-92
2024/04/06 06:26:42;;;;;;;5.18;2.78;;;;;;;11.27;100.00;99547.28;5080914;28;20047;-94
2024/04/06 06:29:08;;;;;;;8.48;4.38;;;;;;;12.17;100.00;99669.16;5082401;28;20047;-94
2024/04/06 06:31:36;;;;;;;7.88;4.47;;;;;;;11.88;100.00;99598.59;5082806;28;20103;-96
2024/04/06 06:34:02;;;;;;;6.40;4.50;;;;;;;12.31;100.00;99621.72;5081388;28;20059;-94
2024/04/06 06:36:28;;;;;;;7.65;3.30;;;;;;;11.92;100.00;99539.84;5080901;28;20131;-95
2024/04/06 06:38:55;;;;;;;5.93;3.10;;;;;;;12.79;100.00;99666.09;5082398;28;20136;-95
2024/04/06 06:41:21;;;;;;;4.95;3.17;;;;;;;12.88;100.00;99661.44;5080349;28;20058;-94
2024/04/06 06:43:47;;;;;;;4.93;3.40;;;;;;;12.90;100.00;99659.63;5080702;28;20110;-95
2024/04/06 06:46:13;;;;;;;7.55;3.40;;;;;;;12.65;100.00;99581.88;5079699;28;20048;-94
2024/04/06 06:48:42;;;;;;;5.97;3.85;;;;;;;12.66;100.00;99566.75;5079679;28;20047;-96
2024/04/06 06:51:08;;;;;;;7.10;3.70;;;;;;;12.02;100.00;99545.91;5090637;28;20040;-95
2024/04/06 06:53:34;;;;;;;6.75;4.45;;;;;;;13.01;100.00;99667.38;5084253;28;20040;-95
2024/04/06 06:56:01;;;;;;;5.82;3.80;;;;;;;12.67;100.00;99572.06;5080977;28;20036;-96
2024/04/06 06:58:27;;;;;;;12.23;4.28;;;;;;;13.50;100.00;99662.69;5081295;28;20063;-95
2024/04/06 07:00:52;;;;;;;10.82;4.70;;;;;;;13.83;100.00;99665.44;5079080;28;20036;-96
2024/04/06 07:03:18;;;;;;;5.70;3.92;;;;;;;14.05;100.00;99655.94;5061683;28;20064;-96
2024/04/06 07:05:46;;;;;;;8.48;4.63;;;;;;;13.63;100.00;99581.28;5070054;28;20116;-95
2024/04/06 07:08:12;;;;;;;6.80;5.05;;;;;;;13.93;100.00;99610.81;5079317;28;20047;-95
2024/04/06 07:10:39;;;;;;;7.18;4.00;;;;;;;14.13;100.00;99627.16;5080294;28;20074;-94
2024/04/06 07:13:05;;;;;;;5.68;3.50;;;;;;;14.61;100.00;99659.75;5079290;28;20046;-94
2024/04/06 07:15:32;;;;;;;5.88;3.05;;;;;;;14.62;100.00;99622.25;5078487;28;20422;-96
2024/04/06 07:17:58;;;;;;;7.25;3.63;;;;;;;14.62;100.00;99573.19;5078958;28;20040;-95
2024/04/06 07:20:24;;;;;;;7.85;4.00;;;;;;;15.35;100.00;99651.22;5079282;28;20063;-94
2024/04/06 07:22:51;;;;;;;5.40;3.55;;;;;;;14.87;100.00;99535.78;5078385;28;20051;-94
2024/04/06 07:25:22;;;;;;;10.90;4.15;;;;;;;15.05;100.00;99545.94;5078436;28;20066;-95
2024/04/06 07:32:58;;;;;;;7.43;3.58;;;;;;;15.36;100.00;99532.34;5087671;28;20053;-96
2024/04/06 07:35:45;;;;;;;4.72;3.97;;;;;;;15.62;100.00;99535.94;5277284;22;20041;-95
2024/04/06 07:38:13;;;;;;;6.57;4.60;;;;;;;16.49;100.00;99668.75;5027865;28;20053;-96
2024/04/06 07:40:39;;;;;;;11.48;6.20;;;;;;;16.59;100.00;99670.19;5010627;28;20505;-94
2024/04/06 07:43:05;;;;;;;7.45;5.05;;;;;;;16.72;100.00;99678.66;5010360;28;20069;-95
2024/04/06 07:45:31;;;;;;;7.35;4.85;;;;;;;16.84;100.00;99682.72;5028256;28;20140;-94
2024/04/06 07:47:57;;;;;;;5.47;3.47;;;;;;;16.31;100.00;99580.84;5016575;28;20528;-93
2024/04/06 07:50:23;;;;;;;7.25;4.50;;;;;;;17.07;100.00;99676.44;5034979;28;20084;-95
2024/04/06 07:52:49;;;;;;;6.30;3.10;;;;;;;17.25;100.00;99678.41;5007331;28;20038;-94
2024/04/06 07:55:17;;;;;;;6.70;4.55;;;;;;;17.32;100.00;99673.66;5033303;28;20045;-95
2024/04/06 07:57:44;;;;;;;4.97;3.50;;;;;;;17.20;100.00;99647.28;5038208;28;20048;-94
2024/04/06 08:00:11;;;;;;;4.15;3.10;;;;;;;16.81;100.00;99616.56;5020867;28;20049;-95
2024/04/06 08:02:37;;;;;;;6.78;3.30;;;;;;;16.53;100.00;99552.25;5011469;28;20049;-95
2024/04/06 08:05:05;;;;;;;4.57;3.38;;;;;;;17.07;100.00;99613.75;5004497;28;20057;-96
2024/04/06 08:07:33;;;;;;;6.68;3.22;;;;;;;17.68;100.00;99682.97;5032663;28;20132;-94
2024/04/06 08:10:00;;;;;;;9.02;3.75;;;;;;;17.82;100.00;99676.09;5038202;28;20045;-95
2024/04/06 08:12:28;;;;;;;5.55;4.20;;;;;;;17.76;100.00;99681.72;5041457;28;20038;-96
2024/04/06 08:14:54;;;;;;;6.63;3.75;;;;;;;17.00;100.00;99570.13;5027019;28;20041;-95
2024/04/06 08:17:20;;;;;;;5.20;3.22;;;;;;;17.20;100.00;99607.84;5031230;28;20347;-95
2024/04/06 08:19:46;;;;;;;7.90;2.88;;;;;;;17.45;100.00;99677.59;5043137;28;20076;-96
2024/04/06 08:22:12;;;;;;;6.18;3.00;;;;;;;16.79;100.00;99563.78;5029256;28;20046;-95
2024/04/06 08:24:39;;;;;;;6.78;3.60;;;;;;;16.92;100.00;99601.81;5018601;28;20061;-96
2024/04/06 08:27:08;;;;;;;4.22;3.20;;;;;;;17.44;100.00;99680.38;5018945;28;20042;-94
2024/04/06 08:29:35;;;;;;;6.35;3.55;;;;;;;17.74;100.00;99656.69;5008355;28;20034;-96
2024/04/06 08:32:02;;;;;;;4.13;3.30;;;;;;;18.03;100.00;99659.97;5036736;28;20036;-96
2024/04/06 08:34:28;;;;;;;8.20;3.50;;;;;;;17.02;100.00;99547.66;5020427;28;20026;-95
2024/04/06 08:36:53;;;;;;;5.25;3.33;;;;;;;17.78;100.00;99609.00;5021862;28;20033;-94
2024/04/06 08:39:21;;;;;;;5.82;2.92;;;;;;;17.25;100.00;99540.44;5037395;28;20033;-96
2024/04/06 08:41:47;;;;;;;4.47;3.90;;;;;;;17.93;100.00;99655.94;5052800;28;20118;-96
2024/04/06 08:44:17;;;;;;;6.82;3.65;;;;;;;18.08;100.00;99657.97;5035660;28;20038;-96
2024/04/06 08:46:45;;;;;;;5.97;3.60;;;;;;;17.79;100.00;99562.34;5033215;28;20046;-96
2024/04/06 08:49:13;;;;;;;5.72;3.70;;;;;;;18.62;100.00;99651.03;5016349;28;20482;-96
2024/04/06 08:51:40;;;;;;;3.58;2.90;;;;;;;18.11;100.00;99508.91;4998752;28;20046;-93
2024/04/06 08:54:06;;;;;;;5.05;3.17;;;;;;;18.24;100.00;99537.03;5015912;28;20136;-95
2024/04/06 08:56:33;;;;;;;6.00;3.45;;;;;;;19.12;100.00;99643.38;5009472;28;20065;-96
2024/04/06 08:59:01;;;;;;;5.70;3.08;;;;;;;18.82;100.00;99573.81;5035892;28;20065;-95
2024/04/06 09:01:27;;;;;;;5.05;3.30;;;;;;;19.27;100.00;99643.50;5033988;28;20141;-93
2024/04/06 09:03:54;;;;;;;7.05;3.15;;;;;;;18.79;100.00;99563.19;5014496;28;20076;-95
2024/04/06 09:06:20;;;;;;;5.32;2.38;;;;;;;18.64;100.00;99505.50;5033351;28;20070;-95
2024/04/06 09:08:47;;;;;;;7.60;3.33;;;;;;;19.47;100.00;99637.16;5035973;28;20054;-94
2024/04/06 09:11:13;;;;;;;6.35;2.90;;;;;;;19.22;100.00;99563.78;5018495;28;20042;-95
2024/04/06 09:13:39;;;;;;;5.85;3.13;;;;;;;19.13;100.00;99504.91;5019957;28;20048;-96
2024/04/06 09:16:07;;;;;;;6.47;3.17;;;;;;;19.84;100.00;99631.72;5019530;28;20042;-96
2024/04/06 09:18:33;;;;;;;4.72;2.25;;;;;;;19.19;87.97;99524.38;5023335;28;20065;-96
2024/04/06 09:21:01;;;;;;;4.47;2.65;;;;;;;19.68;94.66;99628.91;5041370;28;20119;-96
2024/04/06 09:23:27;;;;;;;7.25;3.15;;;;;;;19.92;92.57;99578.22;5023789;28;20056;-95
2024/04/06 09:25:58;;;;;;;5.90;2.70;;;;;;;19.80;89.18;99511.38;5025111;28;20037;-94
2024/04/06 09:28:24;;;;;;;6.43;3.17;;;;;;;20.34;85.40;99584.09;5019900;28;20046;-96
2024/04/06 09:30:55;;;;;;;6.13;4.05;;;;;;;20.40;62.42;99624.28;5004055;28;20593;-95
2024/04/06 09:33:23;;;;;;;4.47;1.80;;;;;;;20.60;59.66;99626.84;5016032;28;20391;-95
2024/04/06 09:35:50;;;;;;;4.72;2.58;;;;;;;20.51;57.76;99575.94;5000566;28;20054;-96
2024/04/06 09:38:18;;;;;;;2.50;1.98;;;;;;;20.77;56.55;99616.91;5000907;28;20053;-95
2024/04/06 09:40:46;;;;;;;2.88;2.30;;;;;;;19.56;54.43;99498.22;5020448;28;20049;-96
2024/04/06 09:43:12;;;;;;;1.80;1.70;;;;;;;19.40;54.96;99541.28;5024774;28;20045;-96
2024/04/06 09:45:38;;;;;;;4.95;1.98;;;;;;;19.67;54.91;99544.41;5025246;28;20513;-96
2024/04/06 09:48:06;;;;;;;1.90;1.30;;;;;;;20.46;54.80;99607.75;5038681;28;20041;-95
2024/04/06 09:50:34;;;;;;;2.28;1.92;;;;;;;20.17;54.60;99529.19;5022745;28;20045;-96
2024/04/06 09:53:02;;;;;;;3.95;1.90;;;;;;;20.59;54.07;99554.81;5023405;28;20049;-96
2024/04/06 09:55:31;;;;;;;4.55;2.03;;;;;;;20.58;53.17;99515.25;5040042;28;20042;-95
2024/04/06 09:57:58;;;;;;;3.60;3.25;;;;;;;21.07;53.61;99573.75;5023217;28;20088;-96
2024/04/06 10:00:24;;;;;;;2.15;1.95;;;;;;;20.58;53.37;99482.84;5019828;28;20053;-95
2024/04/06 10:02:51;;;;;;;3.85;1.85;;;;;;;21.03;52.95;99597.38;5045517;28;20066;-96
2024/04/06 10:05:17;;;;;;;3.25;2.90;;;;;;;20.81;52.67;99507.66;5023689;28;20087;-96
2024/04/06 10:07:48;;;;;;;4.65;2.17;;;;;;;21.35;54.27;99583.84;5044182;28;20046;-93
2024/04/06 10:10:14;;;;;;;6.35;2.85;;;;;;;21.40;55.03;99589.84;5052956;28;20046;-92
2024/04/06 10:12:46;;;;;;;3.00;1.52;;;;;;;20.78;53.38;99524.06;5047431;28;20061;-95
2024/04/06 10:15:13;;;;;;;3.65;1.50;;;;;;;21.30;54.70;99594.06;5024367;28;20048;-96
2024/04/06 10:17:45;;;;;;;4.70;1.80;;;;;;;21.37;51.63;99552.16;5022360;28;20045;-96
2024/04/06 10:20:13;;;;;;;2.92;1.65;;;;;;;21.80;51.45;99583.94;5019917;28;20228;-95
2024/04/06 10:22:50;;;;;;;2.67;1.92;;;;;;;21.29;50.39;99474.16;5026123;28;20049;-96
2024/04/06 10:25:18;;;;;;;3.63;2.08;;;;;;;21.80;50.88;99533.38;5034023;28;20065;-94
2024/04/06 10:27:46;;;;;;;2.05;1.52;;;;;;;22.04;51.44;99571.63;5019707;28;20062;-96
2024/04/06 10:30:12;;;;;;;4.05;1.88;;;;;;;21.50;50.56;99576.69;5019350;28;20045;-94
2024/04/06 10:32:38;;;;;;;3.45;1.90;;;;;;;21.32;50.80;99489.34;5018730;28;20038;-95
2024/04/06 10:35:05;;;;;;;3.10;1.77;;;;;;;21.89;50.58;99570.72;5002489;28;20050;-94
2024/04/06 10:37:35;;;;;;;3.90;1.88;;;;;;;21.87;50.82;99521.19;5032610;28;20136;-94
2024/04/06 10:40:01;;;;;;;3.33;2.38;;;;;;;22.07;51.50;99559.72;5037795;28;20041;-96
2024/04/06 10:42:26;;;;;;;7.65;2.83;;;;;;;21.43;49.47;99476.06;5034611;28;20095;-96
2024/04/06 10:45:02;;;;;;;4.00;2.40;;;;;;;22.07;50.42;99549.75;5020555;28;20034;-95
2024/04/06 10:47:32;;;;;;;2.70;2.30;;;;;;;21.27;49.83;99434.63;5053823;28;20071;-96
2024/04/06 10:55:14;;;;;;;4.30;2.08;;;;;;;21.46;50.08;99429.00;5559491;22;20039;-96
2024/04/06 11:01:02;;;;;;;5.00;2.40;;;;;;;21.63;48.64;99436.09;5366414;23;20035;-96
2024/04/06 11:03:29;;;;;;;3.28;2.10;;;;;;;21.31;49.34;99426.22;5298591;23;20127;-96
2024/04/06 11:05:55;;;;;;;6.35;2.33;;;;;;;21.80;47.76;99456.72;5040716;23;20045;-95
2024/04/06 11:08:21;;;;;;;2.92;2.05;;;;;;;21.99;46.61;99480.78;4982057;28;20062;-94
2024/04/06 11:10:47;;;;;;;4.65;1.67;;;;;;;22.01;45.00;99471.59;4986699;28;20491;-94
2024/04/06 11:13:13;;;;;;;5.03;1.75;;;;;;;22.45;45.85;99524.84;4983421;28;20057;-94
2024/04/06 11:15:43;;;;;;;3.05;1.67;;;;;;;22.19;45.72;99455.16;4985784;28;20082;-96
2024/04/06 11:18:11;;;;;;;2.30;1.73;;;;;;;21.99;44.45;99404.94;4985707;28;20054;-95
2024/04/06 11:20:37;;;;;;;2.28;2.03;;;;;;;22.77;43.46;99514.63;4983459;28;20486;-94
2024/04/06 11:23:04;;;;;;;2.35;1.90;;;;;;;22.69;38.14;99475.41;4983602;28;20491;-94
2024/04/06 11:25:39;;;;;;;5.93;1.90;;;;;;;22.34;38.77;99383.75;4996399;28;20073;-96
2024/04/06 11:28:06;;;;;;;2.50;1.48;;;;;;;22.29;39.12;99391.28;5006049;28;20062;-93
2024/04/06 11:30:32;;;;;;;5.45;1.58;;;;;;;22.74;40.32;99438.00;4997462;28;20076;-95
2024/04/06 11:33:03;;;;;;;2.92;2.08;;;;;;;22.63;38.51;99457.69;5001692;28;20096;-95
2024/04/06 11:35:34;;;;;;;1.98;1.80;;;;;;;22.29;36.54;99385.88;5003587;28;20045;-95
2024/04/06 11:38:00;;;;;;;1.80;1.40;;;;;;;22.06;36.10;99496.56;5000512;28;20516;-95
2024/04/06 11:40:26;;;;;;;3.50;1.65;;;;;;;22.47;38.28;99503.94;4996266;28;20068;-93